Time;durP1;ratioP1;P1;durP2;ratioP2;P2;SDS_P1;SDS_P2;PMS_P1;PMS_P2;Temp;Humidity;BMP_temperature;BMP_pressure;BME280_temperature;BME280_humidity;BME280_pressure;Samples;Min_cycle;Max_cycle;Signal;HPM_P1;HPM_P2
2022/06/01 00:01:31;;;;;;;8.18;3.08;;;;;;;20.88;59.32;99672.09;3153706;28;20082;-69
2022/06/01 00:03:04;;;;;;;10.13;4.07;;;;;;;20.88;59.14;99679.16;3153668;28;20101;-71
2022/06/01 00:04:36;;;;;;;5.15;3.38;;;;;;;20.88;59.39;99676.53;3154634;28;20052;-71
2022/06/01 00:06:08;;;;;;;9.90;3.72;;;;;;;20.88;59.43;99676.53;3147725;28;20052;-71
2022/06/01 00:07:40;;;;;;;10.20;3.97;;;;;;;20.84;59.57;99675.16;3153845;28;20109;-71
2022/06/01 00:09:13;;;;;;;7.18;3.42;;;;;;;20.85;59.50;99676.81;3154179;28;20056;-71
2022/06/01 00:10:44;;;;;;;6.75;3.78;;;;;;;20.84;59.59;99672.50;3154015;28;20105;-71
2022/06/01 00:12:16;;;;;;;8.65;3.90;;;;;;;20.75;59.72;99663.56;3154084;28;20683;-69
2022/06/01 00:13:48;;;;;;;9.27;3.80;;;;;;;20.79;59.79;99672.06;3154214;28;20064;-69
2022/06/01 00:15:20;;;;;;;7.03;3.78;;;;;;;20.77;59.66;99669.56;3153880;28;20565;-69
2022/06/01 00:16:55;;;;;;;7.70;3.80;;;;;;;20.74;59.78;99666.38;3154103;28;20440;-69
2022/06/01 00:18:27;;;;;;;5.35;3.65;;;;;;;20.75;60.11;99676.81;3147448;28;20105;-71
2022/06/01 00:19:59;;;;;;;11.77;3.97;;;;;;;20.71;59.89;99672.78;3153488;28;20048;-69
2022/06/01 00:21:31;;;;;;;7.30;3.75;;;;;;;20.70;59.93;99673.72;3153824;28;20105;-69
2022/06/01 00:23:02;;;;;;;6.00;3.63;;;;;;;20.66;59.86;99667.03;3150824;28;20512;-69
2022/06/01 00:24:38;;;;;;;9.15;3.75;;;;;;;20.64;60.24;99674.28;3153814;28;20135;-69
2022/06/01 00:26:10;;;;;;;7.15;3.88;;;;;;;20.62;60.15;99679.72;3153908;28;20116;-69
2022/06/01 00:27:42;;;;;;;4.68;3.15;;;;;;;20.54;60.17;99668.13;3149604;28;20052;-69
2022/06/01 00:29:14;;;;;;;7.75;3.78;;;;;;;20.56;60.39;99676.78;3153966;28;20685;-69
2022/06/01 00:30:46;;;;;;;7.28;3.42;;;;;;;20.52;60.29;99672.69;3153995;28;20044;-69
2022/06/01 00:32:18;;;;;;;5.50;3.70;;;;;;;20.52;60.11;99678.84;3153809;28;20487;-69
2022/06/01 00:33:50;;;;;;;6.00;3.65;;;;;;;20.45;60.49;99675.06;3150229;28;20052;-69
2022/06/01 00:35:24;;;;;;;6.68;3.67;;;;;;;20.28;60.42;99660.66;3148226;28;20052;-70
2022/06/01 00:36:56;;;;;;;3.95;3.20;;;;;;;20.29;60.41;99670.28;3148987;28;20101;-70
2022/06/01 00:38:28;;;;;;;5.03;3.20;;;;;;;20.25;60.63;99676.78;3148086;28;20079;-69
2022/06/01 00:40:01;;;;;;;8.10;3.30;;;;;;;20.18;60.27;99679.16;3148529;28;20052;-69
2022/06/01 00:41:33;;;;;;;7.00;3.60;;;;;;;20.11;60.45;99677.16;3149439;28;20409;-70
2022/06/01 00:43:20;;;;;;;9.20;3.50;;;;;;;19.99;60.51;99674.63;3149034;28;20064;-70
2022/06/01 00:44:52;;;;;;;7.70;2.92;;;;;;;19.93;60.65;99669.84;3146683;28;20138;-69
2022/06/01 00:46:24;;;;;;;5.13;3.05;;;;;;;19.88;60.72;99671.25;3145335;28;20055;-69
2022/06/01 00:47:57;;;;;;;6.43;3.55;;;;;;;19.84;60.67;99665.34;3149356;28;20106;-70
2022/06/01 00:49:28;;;;;;;10.52;3.53;;;;;;;19.80;60.73;99671.06;3149606;28;20044;-69
2022/06/01 00:51:00;;;;;;;7.93;3.17;;;;;;;19.76;60.50;99663.38;3153911;28;20055;-69
2022/06/01 00:52:37;;;;;;;4.68;3.10;;;;;;;19.63;60.45;99654.78;3153677;28;20056;-70
2022/06/01 00:54:10;;;;;;;6.60;3.03;;;;;;;19.68;60.54;99672.94;3149964;28;20449;-70
2022/06/01 00:55:46;;;;;;;10.80;3.00;;;;;;;19.67;60.42;99669.47;3153512;28;20052;-70
2022/06/01 00:57:18;;;;;;;4.25;2.88;;;;;;;19.65;60.34;99670.56;3152788;28;20513;-70
2022/06/01 00:58:52;;;;;;;6.40;3.05;;;;;;;19.59;60.41;99666.59;3153886;28;20105;-69
2022/06/01 01:00:28;;;;;;;5.80;2.75;;;;;;;19.61;60.14;99666.44;3153121;28;20056;-70
2022/06/01 01:02:02;;;;;;;5.43;2.85;;;;;;;19.60;60.42;99660.34;3153351;28;20142;-70
2022/06/01 01:03:37;;;;;;;7.68;2.85;;;;;;;19.55;60.32;99665.16;3153137;28;20051;-70
2022/06/01 01:05:11;;;;;;;6.22;3.35;;;;;;;19.52;60.39;99665.41;3152191;28;20051;-70
2022/06/01 01:06:44;;;;;;;6.78;3.00;;;;;;;19.49;60.30;99666.53;3153601;28;20048;-69
2022/06/01 01:08:16;;;;;;;6.00;3.03;;;;;;;19.46;60.47;99664.16;3153335;28;20600;-70
2022/06/01 01:09:47;;;;;;;5.07;2.45;;;;;;;19.46;60.44;99665.94;3153124;28;20048;-68
2022/06/01 01:11:24;;;;;;;6.05;2.63;;;;;;;19.47;60.35;99662.34;3153372;28;20104;-68
2022/06/01 01:13:04;;;;;;;5.82;3.00;;;;;;;19.45;60.36;99662.47;3153186;28;20060;-69
2022/06/01 01:14:39;;;;;;;7.30;2.55;;;;;;;19.46;60.37;99663.31;3153250;28;20487;-69
2022/06/01 01:16:12;;;;;;;5.72;2.72;;;;;;;19.39;60.48;99655.06;3153140;28;20079;-69
2022/06/01 01:17:45;;;;;;;4.07;2.50;;;;;;;19.45;60.45;99656.34;3153152;28;20056;-69
2022/06/01 01:19:23;;;;;;;6.47;2.85;;;;;;;19.41;60.04;99653.13;3150300;28;20087;-69
2022/06/01 01:21:06;;;;;;;6.28;2.47;;;;;;;19.40;60.33;99651.44;3149500;28;20520;-69
2022/06/01 01:22:45;;;;;;;4.30;2.40;;;;;;;19.43;60.37;99658.28;3149694;28;20048;-69
2022/06/01 01:24:31;;;;;;;6.10;2.67;;;;;;;19.44;60.24;99646.78;3149212;28;20560;-69
2022/06/01 01:26:06;;;;;;;6.82;2.38;;;;;;;19.46;60.20;99655.38;3149678;28;20121;-68
2022/06/01 01:27:37;;;;;;;6.38;2.67;;;;;;;19.49;60.10;99655.97;3152848;28;20048;-71
2022/06/01 01:29:11;;;;;;;6.25;3.10;;;;;;;19.49;60.04;99650.69;3153248;28;20055;-69
2022/06/01 01:30:49;;;;;;;6.90;2.65;;;;;;;19.52;59.98;99657.50;3153259;28;20048;-70
2022/06/01 01:32:21;;;;;;;7.43;3.13;;;;;;;19.49;59.77;99661.25;3152702;28;20512;-69
2022/06/01 01:33:56;;;;;;;6.57;2.35;;;;;;;19.49;60.18;99660.41;3153455;28;20043;-69
2022/06/01 01:35:27;;;;;;;5.35;2.58;;;;;;;19.49;60.00;99652.47;3152011;28;20118;-69
2022/06/01 01:37:02;;;;;;;11.38;3.35;;;;;;;19.54;59.77;99655.56;3152940;28;20159;-69
2022/06/01 01:38:41;;;;;;;7.63;3.17;;;;;;;19.52;59.66;99644.28;3151873;28;20051;-70
2022/06/01 01:40:13;;;;;;;5.95;2.53;;;;;;;19.55;59.51;99644.03;3153087;28;20079;-70
2022/06/01 01:41:49;;;;;;;4.00;2.30;;;;;;;19.59;59.55;99650.75;3153037;28;20052;-69
2022/06/01 01:43:20;;;;;;;7.57;3.00;;;;;;;19.60;59.57;99641.84;3153159;28;20056;-69
2022/06/01 01:44:59;;;;;;;8.07;2.90;;;;;;;19.62;59.57;99644.38;3152931;28;20051;-69
2022/06/01 01:46:32;;;;;;;6.50;3.00;;;;;;;19.60;59.57;99641.84;3149942;28;20855;-70
2022/06/01 01:48:03;;;;;;;;;;;;;;;19.58;59.57;99635.00;3150335;28;20185;-69
2022/06/01 01:49:38;;;;;;;6.82;2.92;;;;;;;19.60;59.71;99643.66;3153060;28;20396;-69
2022/06/01 01:51:10;;;;;;;6.38;2.45;;;;;;;19.62;59.37;99637.28;3152984;28;20062;-70
2022/06/01 01:52:41;;;;;;;3.78;2.85;;;;;;;19.64;59.35;99640.63;3151786;28;20586;-69
2022/06/01 01:54:29;;;;;;;5.15;2.95;;;;;;;19.68;59.47;99636.78;3151179;28;20086;-68
2022/06/01 01:56:25;;;;;;;6.78;2.58;;;;;;;19.69;59.29;99642.91;3151128;28;20052;-69
2022/06/01 01:58:05;;;;;;;9.75;3.15;;;;;;;19.69;59.31;99634.97;3141580;28;20048;-69
2022/06/01 01:59:56;;;;;;;6.53;2.55;;;;;;;19.72;59.02;99645.28;3150347;28;20047;-68
2022/06/01 02:01:36;;;;;;;5.00;2.60;;;;;;;19.72;59.34;99638.19;3148626;28;20162;-69
2022/06/01 02:03:15;;;;;;;4.13;2.50;;;;;;;19.74;59.30;99638.91;3152894;28;20105;-68
2022/06/01 02:06:47;;;;;;;5.82;2.65;;;;;;;19.76;59.28;99646.69;3152878;28;20418;-69
2022/06/01 02:08:25;;;;;;;9.27;2.83;;;;;;;19.78;59.35;99645.56;3152611;28;20554;-69
2022/06/01 02:13:42;;;;;;;;;;;;;;;19.79;59.21;99638.50;3151107;28;20485;-70
2022/06/01 02:15:21;;;;;;;6.47;3.08;;;;;;;19.76;59.10;99634.31;3152571;28;19976;-70
2022/06/01 02:16:58;;;;;;;6.82;2.40;;;;;;;19.75;59.08;99631.78;3152794;28;20055;-70
2022/06/01 02:18:36;;;;;;;4.78;2.63;;;;;;;19.81;59.22;99641.00;3146507;28;20446;-69
2022/06/01 02:20:13;;;;;;;4.47;2.28;;;;;;;19.82;59.09;99640.03;3152784;28;20048;-69
2022/06/01 02:21:45;;;;;;;7.10;2.58;;;;;;;19.75;59.27;99630.00;3146071;28;20655;-68
2022/06/01 02:23:18;;;;;;;6.53;2.70;;;;;;;19.83;59.31;99644.38;3153954;28;20347;-70
2022/06/01 02:24:50;;;;;;;7.67;2.43;;;;;;;19.82;59.14;99645.31;3147786;28;20254;-70
2022/06/01 02:26:23;;;;;;;9.60;2.72;;;;;;;19.77;59.28;99638.63;3148811;28;20056;-69
2022/06/01 02:27:58;;;;;;;4.17;2.60;;;;;;;19.71;59.30;99655.00;3150164;28;20505;-70
2022/06/01 02:29:36;;;;;;;6.22;2.92;;;;;;;19.64;59.74;99648.56;3152260;28;20391;-70
2022/06/01 02:31:09;;;;;;;6.15;2.50;;;;;;;19.59;59.82;99647.28;3152888;28;20125;-70
2022/06/01 02:32:41;;;;;;;4.30;2.70;;;;;;;19.23;59.85;99601.91;3152623;28;20048;-69
2022/06/01 02:34:14;;;;;;;6.90;3.20;;;;;;;19.49;60.13;99663.03;3152549;28;20225;-69
2022/06/01 02:35:49;;;;;;;5.95;3.25;;;;;;;19.43;60.10;99666.19;3152159;28;20073;-69
2022/06/01 02:37:23;;;;;;;5.40;2.78;;;;;;;19.40;60.14;99661.19;3144814;28;20530;-70
2022/06/01 02:38:57;;;;;;;7.78;2.88;;;;;;;19.36;60.34;99657.13;3152464;28;20056;-69
2022/06/01 02:40:30;;;;;;;8.27;3.00;;;;;;;19.36;60.26;99663.25;3152577;28;20503;-70
2022/06/01 02:42:25;;;;;;;10.27;3.10;;;;;;;19.36;59.83;99657.97;3151881;28;20048;-70
2022/06/01 02:43:58;;;;;;;12.13;3.63;;;;;;;19.36;60.08;99657.13;3146247;28;20141;-70
2022/06/01 02:45:32;;;;;;;7.32;2.90;;;;;;;19.34;60.08;99651.97;3152648;28;20113;-70
2022/06/01 02:47:04;;;;;;;10.10;3.22;;;;;;;19.38;60.00;99652.56;3152502;28;20101;-71
2022/06/01 02:48:38;;;;;;;5.40;3.47;;;;;;;19.37;59.97;99654.34;3152413;28;20052;-69
2022/06/01 02:50:18;;;;;;;8.02;3.00;;;;;;;19.32;60.09;99646.84;3151531;28;20052;-70
2022/06/01 02:51:50;;;;;;;8.90;3.53;;;;;;;19.35;60.12;99653.66;3152124;28;20047;-69
2022/06/01 02:53:22;;;;;;;7.32;2.95;;;;;;;19.35;60.18;99660.75;3152300;28;20048;-69
2022/06/01 02:54:54;;;;;;;3.90;2.55;;;;;;;19.36;60.24;99659.78;3152367;28;20047;-69
2022/06/01 02:56:27;;;;;;;6.05;2.90;;;;;;;19.35;60.20;99663.38;3152470;28;20101;-70
2022/06/01 02:57:59;;;;;;;9.73;3.20;;;;;;;19.36;60.36;99665.88;3152264;28;20081;-69
2022/06/01 02:59:32;;;;;;;5.28;2.72;;;;;;;19.33;60.32;99659.06;3145889;28;20422;-69
2022/06/01 03:01:06;;;;;;;8.85;3.30;;;;;;;19.33;60.18;99664.34;3152664;28;20442;-69
2022/06/01 03:02:39;;;;;;;9.85;3.13;;;;;;;19.34;60.69;99657.25;3152441;28;20056;-70
2022/06/01 03:04:11;;;;;;;5.68;3.47;;;;;;;19.36;60.39;99667.69;3155444;28;20113;-70
2022/06/01 03:05:42;;;;;;;7.45;3.05;;;;;;;19.36;60.40;99670.34;3154865;28;20048;-70
2022/06/01 03:07:13;;;;;;;5.55;3.00;;;;;;;19.36;60.36;99667.69;3154771;28;20139;-71
2022/06/01 03:08:45;;;;;;;8.75;3.40;;;;;;;19.34;60.22;99667.81;3154137;28;20523;-71
2022/06/01 03:10:18;;;;;;;7.85;3.33;;;;;;;19.33;60.19;99668.78;3151718;28;20052;-70
2022/06/01 03:11:50;;;;;;;8.10;2.92;;;;;;;19.28;60.06;99666.50;3154939;28;20051;-70
2022/06/01 03:13:24;;;;;;;7.40;2.97;;;;;;;19.19;60.18;99655.91;3154675;28;20048;-70
2022/06/01 03:14:56;;;;;;;5.13;2.92;;;;;;;19.22;60.04;99667.03;3154624;28;20487;-71
2022/06/01 03:16:29;;;;;;;8.50;2.97;;;;;;;19.23;60.03;99670.53;3154770;28;20051;-71
2022/06/01 03:18:01;;;;;;;9.15;3.17;;;;;;;19.22;60.14;99661.75;3154799;28;20394;-71
2022/06/01 03:19:33;;;;;;;16.55;3.55;;;;;;;19.16;60.03;99656.16;3154547;28;20052;-69
2022/06/01 03:21:05;;;;;;;9.40;3.15;;;;;;;19.20;59.97;99663.69;3154792;28;20059;-69
2022/06/01 03:22:38;;;;;;;7.68;3.45;;;;;;;19.21;60.16;99670.66;3154559;28;20051;-69
2022/06/01 03:24:10;;;;;;;4.95;2.65;;;;;;;19.21;60.07;99670.66;3153926;28;20059;-69
2022/06/01 03:25:42;;;;;;;6.97;2.90;;;;;;;19.21;60.03;99667.19;3154538;28;20083;-69
2022/06/01 03:27:14;;;;;;;5.32;3.25;;;;;;;19.24;60.00;99672.19;3154553;28;20300;-68
2022/06/01 03:28:46;;;;;;;6.05;3.00;;;;;;;19.26;59.89;99671.09;3154642;28;20841;-69
2022/06/01 03:30:19;;;;;;;6.88;3.20;;;;;;;19.28;60.08;99673.59;3154619;28;20539;-70
2022/06/01 03:31:52;;;;;;;6.90;3.25;;;;;;;19.30;59.90;99666.41;3154509;28;20055;-69
2022/06/01 03:33:24;;;;;;;9.23;3.47;;;;;;;19.27;60.03;99670.13;3154625;28;20060;-68
2022/06/01 03:34:56;;;;;;;5.82;3.33;;;;;;;19.27;59.90;99672.78;3154809;28;20060;-69
2022/06/01 03:36:28;;;;;;;8.75;3.15;;;;;;;19.25;59.96;99674.69;3154413;28;20317;-69
2022/06/01 03:38:00;;;;;;;11.95;3.90;;;;;;;19.19;60.25;99675.19;3152959;28;20056;-69
2022/06/01 03:39:32;;;;;;;7.37;3.67;;;;;;;19.12;60.42;99663.50;3154894;28;20056;-69
2022/06/01 03:41:04;;;;;;;6.55;3.20;;;;;;;19.14;60.31;99671.25;3154599;28;20054;-70
2022/06/01 03:42:36;;;;;;;10.55;3.13;;;;;;;19.09;60.32;99672.50;3154439;28;20074;-70
2022/06/01 03:45:58;;;;;;;11.15;3.40;;;;;;;19.10;60.49;99676.81;3153946;28;20583;-70
2022/06/01 03:47:32;;;;;;;4.60;3.28;;;;;;;19.13;60.50;99675.72;3154310;28;20040;-69
2022/06/01 03:49:04;;;;;;;5.32;3.30;;;;;;;19.08;60.31;99677.91;3154454;28;20056;-68
2022/06/01 03:50:37;;;;;;;9.52;3.35;;;;;;;19.09;60.57;99675.13;3154365;28;20139;-68
2022/06/01 03:52:09;;;;;;;5.68;3.13;;;;;;;19.10;60.47;99666.25;3154214;28;20051;-69
2022/06/01 03:53:42;;;;;;;6.85;3.88;;;;;;;19.07;60.48;99666.50;3154447;28;20055;-69
2022/06/01 03:55:14;;;;;;;7.30;3.85;;;;;;;19.14;60.40;99671.25;3154263;28;20536;-69
2022/06/01 03:56:46;;;;;;;7.70;3.25;;;;;;;19.15;60.20;99673.78;3152528;28;20052;-69
2022/06/01 03:58:20;;;;;;;7.78;3.22;;;;;;;19.15;60.21;99671.16;3154209;28;20494;-69
2022/06/01 03:59:52;;;;;;;12.98;3.70;;;;;;;19.17;60.17;99669.25;3154432;28;20052;-69
2022/06/01 04:01:24;;;;;;;7.60;3.58;;;;;;;19.20;60.02;99668.16;3154239;28;20059;-68
2022/06/01 04:02:57;;;;;;;11.85;2.92;;;;;;;19.18;59.92;99670.91;3154076;28;20052;-69
2022/06/01 04:04:29;;;;;;;;;;;;;;;19.21;59.97;99672.44;3155237;28;20056;-69
2022/06/01 04:06:01;;;;;;;12.38;3.75;;;;;;;19.16;59.90;99664.06;3153806;28;19931;-70
2022/06/01 04:07:33;;;;;;;10.20;3.40;;;;;;;19.19;59.88;99664.66;3154130;28;20048;-70
2022/06/01 04:09:05;;;;;;;8.38;3.30;;;;;;;19.24;59.72;99672.19;3154233;28;20056;-70
2022/06/01 04:10:39;;;;;;;7.60;2.80;;;;;;;19.25;59.67;99664.13;3154335;28;20079;-70
2022/06/01 04:12:11;;;;;;;11.40;3.20;;;;;;;19.29;59.54;99670.03;3154277;28;20296;-69
2022/06/01 04:13:44;;;;;;;12.55;3.38;;;;;;;19.30;59.56;99676.97;3154115;28;20498;-69
2022/06/01 04:15:16;;;;;;;7.07;3.58;;;;;;;19.32;59.52;99670.59;3153637;28;20051;-71
2022/06/01 04:16:49;;;;;;;6.05;3.40;;;;;;;19.33;59.45;99672.25;3154029;28;20059;-70
2022/06/01 04:18:22;;;;;;;4.45;2.50;;;;;;;19.35;59.46;99671.31;3154355;28;20048;-70
2022/06/01 04:19:54;;;;;;;5.18;3.00;;;;;;;19.35;59.22;99674.78;3150911;28;20441;-70
2022/06/01 04:21:29;;;;;;;6.55;3.10;;;;;;;19.39;59.41;99672.72;3154476;28;20048;-70
2022/06/01 04:23:01;;;;;;;14.30;3.42;;;;;;;19.04;59.44;99615.78;3153869;28;20052;-68
2022/06/01 04:24:35;;;;;;;6.85;2.63;;;;;;;19.39;59.35;99670.91;3153771;28;20039;-70
2022/06/01 04:26:07;;;;;;;6.80;3.30;;;;;;;19.42;59.39;99675.09;3154311;28;20113;-69
2022/06/01 04:27:40;;;;;;;9.48;3.67;;;;;;;19.45;59.42;99678.31;3148686;28;20089;-69
2022/06/01 04:29:13;;;;;;;9.80;4.32;;;;;;;19.49;59.40;99670.97;3149055;28;20621;-69
2022/06/01 04:30:46;;;;;;;13.50;3.28;;;;;;;19.51;59.33;99669.88;3142572;28;20052;-69
2022/06/01 04:32:25;;;;;;;11.27;3.30;;;;;;;19.45;59.22;99654.53;3149154;28;20550;-69
2022/06/01 04:33:59;;;;;;;8.60;3.28;;;;;;;19.57;59.48;99673.81;3149899;28;20052;-68
2022/06/01 04:35:30;;;;;;;;;;;;;;;19.57;59.01;99678.25;3149457;28;20057;-68
2022/06/01 04:37:02;;;;;;;6.95;3.10;;;;;;;19.53;58.97;99659.19;3149552;28;20613;-69
2022/06/01 04:38:34;;;;;;;10.98;3.60;;;;;;;19.64;58.92;99666.19;3146918;28;20238;-68
2022/06/01 04:40:08;;;;;;;7.82;2.88;;;;;;;19.65;58.43;99666.09;3148509;28;20147;-67
2022/06/01 04:41:40;;;;;;;7.78;3.08;;;;;;;19.69;58.40;99671.97;3148387;28;20289;-72
2022/06/01 04:44:59;;;;;;;8.07;3.15;;;;;;;19.75;58.14;99680.19;3143367;28;20121;-68
2022/06/01 04:46:41;;;;;;;7.88;2.60;;;;;;;19.80;57.98;99679.81;3149648;28;20503;-66
2022/06/01 04:48:16;;;;;;;6.93;2.70;;;;;;;19.85;57.88;99682.06;3148471;28;20542;-67
2022/06/01 04:49:49;;;;;;;5.57;2.85;;;;;;;19.89;57.74;99686.13;3149111;28;20493;-69
2022/06/01 04:51:21;;;;;;;;;;;;;;;19.89;57.70;99688.75;3148848;28;20559;-70
2022/06/01 04:52:53;;;;;;;6.03;2.25;;;;;;;19.90;57.54;99685.97;3148568;28;19930;-69
2022/06/01 04:54:25;;;;;;;7.68;2.40;;;;;;;19.90;57.37;99687.78;3149577;28;20132;-69
2022/06/01 04:55:57;;;;;;;8.30;2.75;;;;;;;19.92;57.23;99691.13;3148540;28;20113;-69
2022/06/01 04:57:28;;;;;;;8.23;2.75;;;;;;;19.96;57.18;99689.88;3149017;28;20109;-68
2022/06/01 04:59:00;;;;;;;11.00;2.80;;;;;;;19.99;57.25;99695.78;3148567;28;20047;-69
2022/06/01 05:00:34;;;;;;;7.95;2.70;;;;;;;20.04;57.19;99692.72;3151697;28;20101;-68
2022/06/01 05:02:06;;;;;;;7.13;2.40;;;;;;;19.89;57.13;99672.91;3153438;28;20083;-67
2022/06/01 05:03:38;;;;;;;4.60;2.45;;;;;;;20.07;56.99;99700.38;3153155;28;20048;-67
2022/06/01 05:05:12;;;;;;;8.57;2.80;;;;;;;20.12;56.99;99702.66;3153034;28;20055;-67
2022/06/01 05:06:44;;;;;;;4.90;2.22;;;;;;;20.10;56.65;99702.75;3153321;28;20181;-66
2022/06/01 05:08:16;;;;;;;6.28;2.53;;;;;;;20.13;56.67;99702.50;3152890;28;20272;-67
2022/06/01 05:09:48;;;;;;;5.57;2.45;;;;;;;20.09;56.86;99700.25;3153556;28;20448;-68
2022/06/01 05:11:20;;;;;;;10.93;3.42;;;;;;;20.16;56.89;99712.81;3153237;28;20182;-65
2022/06/01 05:12:52;;;;;;;10.43;4.35;;;;;;;20.22;57.19;99706.16;3152782;28;20135;-70
2022/06/01 05:14:25;;;;;;;9.13;3.00;;;;;;;20.27;56.69;99711.06;3152879;28;20056;-66
2022/06/01 05:15:59;;;;;;;15.30;9.40;;;;;;;20.32;56.46;99707.03;3150767;28;20055;-70
2022/06/01 05:17:31;;;;;;;4.60;2.75;;;;;;;20.38;56.59;99708.28;3153025;28;20048;-71
2022/06/01 05:19:03;;;;;;;35.70;16.37;;;;;;;20.48;56.58;99706.53;3153408;28;20048;-66
2022/06/01 05:20:37;;;;;;;12.23;3.60;;;;;;;20.55;56.38;99712.13;3152573;28;20413;-72
2022/06/01 05:22:11;;;;;;;15.43;5.82;;;;;;;20.49;56.36;99694.13;3152834;28;20106;-68
2022/06/01 05:23:42;;;;;;;27.10;16.02;;;;;;;20.66;56.05;99714.66;3152919;28;20498;-70
2022/06/01 05:25:14;;;;;;;6.40;3.03;;;;;;;20.61;56.24;99693.06;3153129;28;20622;-68
2022/06/01 05:26:46;;;;;;;6.25;2.70;;;;;;;20.75;55.92;99713.84;3152406;28;20560;-70
2022/06/01 05:28:20;;;;;;;5.05;2.20;;;;;;;20.71;55.47;99703.69;3153207;28;20750;-71
2022/06/01 05:29:52;;;;;;;3.22;1.98;;;;;;;20.80;55.76;99705.50;3152756;28;20047;-68
2022/06/01 05:31:24;;;;;;;7.38;2.20;;;;;;;20.93;55.74;99715.84;3153296;28;20097;-68
2022/06/01 05:32:55;;;;;;;12.35;2.30;;;;;;;20.98;55.34;99714.44;3153345;28;20048;-67
2022/06/01 05:34:28;;;;;;;6.65;2.17;;;;;;;21.04;55.52;99713.06;3152810;28;20101;-70
2022/06/01 05:36:01;;;;;;;7.35;2.40;;;;;;;21.06;55.06;99704.00;3152824;28;20048;-72
2022/06/01 05:37:33;;;;;;;;;;;;;;;21.19;55.26;99710.84;3152818;28;20063;-69
2022/06/01 05:39:05;;;;;;;6.15;2.22;;;;;;;21.24;54.97;99719.22;3147780;28;19924;-68
2022/06/01 05:40:36;;;;;;;6.55;2.45;;;;;;;21.28;54.72;99716.13;3152820;28;20528;-68
2022/06/01 05:42:09;;;;;;;4.20;2.63;;;;;;;21.32;54.57;99709.56;3152714;28;20067;-68
2022/06/01 05:43:41;;;;;;;7.78;2.33;;;;;;;21.39;54.22;99704.59;3151072;28;20605;-70
2022/06/01 05:45:14;;;;;;;6.72;2.42;;;;;;;21.46;54.32;99707.50;3152923;28;20565;-77
2022/06/01 05:46:45;;;;;;;9.25;2.60;;;;;;;21.55;53.86;99707.47;3152699;28;20059;-76
2022/06/01 05:48:19;;;;;;;9.60;2.50;;;;;;;21.65;53.78;99709.28;3152348;28;20113;-72
2022/06/01 05:49:56;;;;;;;8.02;2.58;;;;;;;21.40;53.13;99658.56;3152831;28;20062;-78
2022/06/01 05:51:30;;;;;;;8.95;2.33;;;;;;;21.60;52.89;99677.91;3152843;28;20674;-75
2022/06/01 05:53:01;;;;;;;;;;;;;;;21.81;52.37;99709.53;3153228;28;20070;-75
2022/06/01 05:54:33;;;;;;;5.75;2.20;;;;;;;21.86;51.89;99699.34;3152666;28;20389;-74
2022/06/01 05:56:05;;;;;;;6.43;2.40;;;;;;;21.80;51.74;99678.72;3152731;28;20598;-73
2022/06/01 05:59:27;;;;;;;8.90;2.28;;;;;;;22.08;51.15;99708.75;3145936;28;20117;-69
2022/06/01 06:01:04;;;;;;;9.15;2.90;;;;;;;22.15;51.22;99706.34;3153029;28;20101;-70
2022/06/01 06:02:36;;;;;;;5.47;2.25;;;;;;;22.22;50.62;99716.25;3149097;28;20056;-69
2022/06/01 06:04:07;;;;;;;5.63;2.28;;;;;;;22.10;49.92;99690.06;3151095;28;20048;-69
2022/06/01 06:07:30;;;;;;;6.78;2.60;;;;;;;22.33;49.83;99712.59;3152820;28;20055;-69
2022/06/01 06:09:06;;;;;;;7.50;2.60;;;;;;;22.37;50.21;99713.97;3152905;28;20072;-70
2022/06/01 06:10:38;;;;;;;5.32;2.38;;;;;;;22.43;49.90;99713.38;3152014;28;20461;-70
2022/06/01 06:12:10;;;;;;;5.65;2.67;;;;;;;22.49;49.98;99712.78;3152580;28;20048;-71
2022/06/01 06:13:42;;;;;;;6.85;2.70;;;;;;;22.56;50.30;99718.31;3152512;28;20828;-71
2022/06/01 06:15:14;;;;;;;10.20;2.25;;;;;;;22.59;50.12;99707.41;3152983;28;20055;-73
2022/06/01 06:16:46;;;;;;;8.15;2.35;;;;;;;22.67;49.99;99712.81;3153002;28;20068;-72
2022/06/01 06:18:18;;;;;;;7.55;2.20;;;;;;;22.72;49.68;99712.38;3154316;28;20060;-69
2022/06/01 06:19:50;;;;;;;5.90;2.35;;;;;;;22.78;49.64;99719.75;3153056;28;20245;-69
2022/06/01 06:21:22;;;;;;;5.97;2.38;;;;;;;22.80;49.26;99714.25;3150448;28;20056;-70
2022/06/01 06:22:55;;;;;;;10.48;2.65;;;;;;;22.82;49.18;99721.09;3152554;28;20059;-69
2022/06/01 06:24:26;;;;;;;;;;;;;;;22.86;49.25;99711.84;3153171;28;20285;-70
2022/06/01 06:25:58;;;;;;;9.00;2.38;;;;;;;22.88;49.61;99717.00;3152412;28;19924;-69
2022/06/01 06:27:30;;;;;;;7.75;2.63;;;;;;;22.87;49.01;99705.56;3152543;28;20350;-69
2022/06/01 06:29:04;;;;;;;4.85;2.58;;;;;;;22.96;49.06;99708.34;3152482;28;20097;-69
2022/06/01 06:30:38;;;;;;;5.03;2.50;;;;;;;23.00;48.83;99704.38;3151685;28;20062;-68
2022/06/01 06:32:10;;;;;;;12.90;3.25;;;;;;;23.03;48.99;99709.38;3150238;28;20047;-69
2022/06/01 06:33:42;;;;;;;7.43;2.78;;;;;;;23.08;48.71;99705.28;3151664;28;20059;-68
2022/06/01 06:35:14;;;;;;;7.28;2.42;;;;;;;23.15;48.21;99705.50;3151645;28;20060;-67
2022/06/01 06:36:47;;;;;;;4.90;2.20;;;;;;;23.23;48.23;99710.06;3151037;28;20409;-69
2022/06/01 06:38:20;;;;;;;4.53;2.30;;;;;;;23.26;47.77;99702.63;3150510;28;20302;-69
2022/06/01 06:39:52;;;;;;;;;;;;;;;23.27;47.58;99700.81;3151538;28;20587;-70
2022/06/01 06:41:24;;;;;;;8.13;2.13;;;;;;;23.27;47.03;99693.66;3151324;28;19924;-69
2022/06/01 06:42:56;;;;;;;8.55;2.40;;;;;;;23.36;47.24;99694.56;3151787;28;20058;-68
2022/06/01 06:44:28;;;;;;;11.85;2.50;;;;;;;23.42;47.37;99693.13;3152150;28;20117;-71
2022/06/01 06:46:02;;;;;;;4.45;2.63;;;;;;;23.47;47.04;99701.47;3152325;28;20052;-69
2022/06/01 06:47:34;;;;;;;7.90;2.78;;;;;;;23.48;46.62;99698.63;3151828;28;20048;-67
2022/06/01 06:49:06;;;;;;;11.55;3.20;;;;;;;23.50;46.40;99686.03;3155025;28;20046;-71
2022/06/01 06:50:39;;;;;;;14.60;6.28;;;;;;;23.60;46.61;99696.56;3149470;28;20054;-67
2022/06/01 06:52:10;;;;;;;25.40;9.88;;;;;;;23.67;46.64;99692.31;3151570;28;20105;-68
2022/06/01 06:53:44;;;;;;;10.52;4.32;;;;;;;23.76;46.61;99696.72;3151885;28;20125;-65
2022/06/01 06:55:16;;;;;;;7.97;3.00;;;;;;;23.80;46.34;99687.44;3151952;28;20173;-67
2022/06/01 06:56:48;;;;;;;5.05;2.47;;;;;;;23.88;45.77;99689.31;3151871;28;21108;-68
2022/06/01 06:58:20;;;;;;;5.22;2.88;;;;;;;23.93;45.63;99688.81;3152462;28;20059;-68
2022/06/01 06:59:52;;;;;;;10.23;3.30;;;;;;;23.98;45.82;99684.69;3152067;28;20055;-67
2022/06/01 07:01:24;;;;;;;11.55;2.50;;;;;;;24.05;45.78;99687.59;3152256;28;20105;-67
2022/06/01 07:02:56;;;;;;;11.32;3.08;;;;;;;24.08;45.61;99681.94;3152157;28;20139;-69
2022/06/01 07:04:28;;;;;;;7.78;3.17;;;;;;;24.11;45.80;99672.78;3152111;28;20070;-69
2022/06/01 07:06:17;;;;;;;5.75;2.83;;;;;;;24.26;46.04;99689.84;3151440;28;20117;-68
2022/06/01 07:07:49;;;;;;;5.63;2.78;;;;;;;24.36;45.92;99687.03;3145643;28;20048;-69
2022/06/01 07:09:22;;;;;;;12.60;2.83;;;;;;;24.43;45.58;99682.75;3145303;28;20055;-68
2022/06/01 07:10:54;;;;;;;;;;;;;;;24.51;45.79;99690.78;3152048;28;20056;-69
2022/06/01 07:12:26;;;;;;;6.82;2.72;;;;;;;24.61;45.65;99680.84;3151604;28;20440;-67
2022/06/01 07:13:59;;;;;;;3.90;2.10;;;;;;;24.72;45.51;99688.50;3151846;28;20059;-67
2022/06/01 07:15:31;;;;;;;5.55;2.72;;;;;;;24.69;45.06;99664.84;3151758;28;20079;-68
2022/06/01 07:17:04;;;;;;;6.53;3.03;;;;;;;24.86;45.09;99683.53;3151866;28;20048;-68
2022/06/01 07:18:38;;;;;;;6.57;2.88;;;;;;;24.99;44.81;99686.53;3151559;28;20060;-69
2022/06/01 07:20:11;;;;;;;6.32;2.72;;;;;;;25.06;44.90;99684.06;3151670;28;20134;-69
2022/06/01 07:21:43;;;;;;;5.13;2.20;;;;;;;25.08;44.39;99682.06;3152474;28;20101;-68
2022/06/01 07:23:14;;;;;;;5.78;2.45;;;;;;;25.15;44.02;99673.28;3152116;28;20117;-69
2022/06/01 07:24:48;;;;;;;5.65;2.20;;;;;;;25.28;44.64;99677.25;3152244;28;20528;-69
2022/06/01 07:26:21;;;;;;;;;;;;;;;25.33;43.96;99681.09;3152559;28;20064;-68
2022/06/01 07:27:54;;;;;;;5.25;2.47;;;;;;;25.41;43.88;99680.28;3151978;28;19924;-68
2022/06/01 07:29:26;;;;;;;;;;;;;;;25.47;43.76;99681.41;3152652;28;20043;-68
2022/06/01 07:30:57;;;;;;;7.15;2.50;;;;;;;25.52;43.54;99681.75;3151535;28;19924;-68
2022/06/01 07:32:29;;;;;;;8.68;2.75;;;;;;;25.60;43.34;99679.91;3151993;28;20090;-68
2022/06/01 07:34:01;;;;;;;12.98;4.88;;;;;;;25.64;43.74;99669.72;3152178;28;20048;-68